Time;durP1;ratioP1;P1;durP2;ratioP2;P2;SDS_P1;SDS_P2;PMS_P1;PMS_P2;Temp;Humidity;BMP_temperature;BMP_pressure;BME280_temperature;BME280_humidity;BME280_pressure;Samples;Min_cycle;Max_cycle;Signal;HPM_P1;HPM_P2
2021/06/04 00:05:48;;;;;;;;;;;;;;;;;;;;;
2021/06/04 00:23:14;;;;;;;6.80;5.68;;;15.60;99.90;;;;;;5894864;24;20132;-93
2021/06/04 00:33:44;;;;;;;;;;;;;;;;;;;;;
2021/06/04 00:40:32;;;;;;;;;;;;;;;;;;;;;
2021/06/04 01:07:17;;;;;;;8.80;6.85;;;14.90;99.90;;;;;;5806125;22;8883734;-91
2021/06/04 01:10:50;;;;;;;7.38;6.68;;;14.80;99.90;;;;;;6098871;23;20097;-92
2021/06/04 01:34:25;;;;;;;;;;;;;;;;;;;;;
2021/06/04 02:39:26;;;;;;;;;;;;;;;;;;;;;
2021/06/04 02:43:08;;;;;;;10.45;9.40;;;14.50;99.90;;;;;;5105865;28;20155;-90
2021/06/04 03:02:03;;;;;;;10.00;8.25;;;14.70;99.90;;;;;;4821501;29;20483;-91
2021/06/04 03:09:06;;;;;;;;;;;;;;;;;;;;;
2021/06/04 03:16:04;;;;;;;9.40;8.45;;;14.70;99.90;;;;;;5025783;28;20076;-89
2021/06/04 03:30:28;;;;;;;8.77;7.85;;;14.60;99.90;;;;;;4864865;29;20390;-90
2021/06/04 03:38:05;;;;;;;8.52;7.68;;;14.60;99.90;;;;;;5099887;27;171887;-92
2021/06/04 03:42:17;;;;;;;;;;;;;;;;;;;;;
2021/06/04 03:45:04;;;;;;;8.75;7.85;;;14.50;99.90;;;;;;4888308;29;20049;-92
2021/06/04 03:48:28;;;;;;;;;;;;;;;;;;;;;
2021/06/04 03:52:00;;;;;;;;;;;;;;;;;;;;;
2021/06/04 03:54:59;;;;;;;9.13;8.23;;;14.40;99.90;;;;;;5013857;28;20132;-92
2021/06/04 03:58:25;;;;;;;9.70;8.80;;;14.40;99.90;;;;;;5028881;28;20066;-90
2021/06/04 04:02:03;;;;;;;9.13;7.95;;;14.40;99.90;;;;;;4987171;28;20129;-90
2021/06/04 04:04:56;;;;;;;11.23;9.18;;;14.50;99.90;;;;;;4988962;28;20038;-90
2021/06/04 04:08:20;;;;;;;11.82;9.15;;;14.50;99.90;;;;;;4990538;28;20050;-89
2021/06/04 04:11:36;;;;;;;10.73;9.63;;;14.60;99.90;;;;;;4952157;28;20079;-91
2021/06/04 04:15:07;;;;;;;8.13;6.70;;;14.80;99.90;;;;;;4936304;29;20141;-91
2021/06/04 04:42:50;;;;;;;14.50;12.90;;;16.10;99.90;;;;;;5003507;28;20439;-90
2021/06/04 04:45:23;;;;;;;15.25;12.57;;;16.20;99.90;;;;;;5005695;28;20494;-91
2021/06/04 04:48:02;;;;;;;14.80;12.10;;;16.30;99.90;;;;;;4993671;28;20590;-93
2021/06/04 04:50:35;;;;;;;15.20;11.23;;;16.30;99.90;;;;;;4976204;28;20487;-94
2021/06/04 04:53:06;;;;;;;14.35;10.93;;;16.30;99.90;;;;;;4990943;28;20086;-93
2021/06/04 04:56:39;;;;;;;14.27;11.05;;;16.40;99.90;;;;;;4932399;29;20047;-92
2021/06/04 04:59:22;;;;;;;;;;;;;;;;;;;;;
2021/06/04 05:01:59;;;;;;;12.67;10.57;;;16.30;99.90;;;;;;4928765;29;20461;-93
2021/06/04 05:04:38;;;;;;;12.02;10.05;;;16.40;99.90;;;;;;4934198;29;20114;-94
2021/06/04 05:07:17;;;;;;;10.52;9.15;;;16.40;99.90;;;;;;4931828;29;20077;-93
2021/06/04 05:10:35;;;;;;;13.10;9.20;;;16.50;99.90;;;;;;4912716;29;20067;-92
2021/06/04 05:13:13;;;;;;;13.48;8.85;;;16.70;99.90;;;;;;4943936;28;20043;-92
2021/06/04 05:15:59;;;;;;;12.75;8.80;;;16.70;99.90;;;;;;4986122;28;20109;-95
2021/06/04 05:18:26;;;;;;;9.77;7.68;;;16.90;99.90;;;;;;4993678;28;20091;-93
2021/06/04 05:21:24;;;;;;;11.32;8.35;;;17.00;99.90;;;;;;4990885;28;20042;-93
2021/06/04 05:25:00;;;;;;;;;;;;;;;;;;;;;
2021/06/04 05:27:44;;;;;;;;;;;;;;;;;;;;;
2021/06/04 05:30:37;;;;;;;14.43;8.65;;;17.60;99.90;;;;;;4935315;29;20462;-93
2021/06/04 05:33:46;;;;;;;8.63;6.60;;;17.80;99.90;;;;;;4900607;29;20058;-92
2021/06/04 05:36:47;;;;;;;12.05;6.32;;;18.00;99.90;;;;;;4933341;29;20075;-93
2021/06/04 05:39:23;;;;;;;10.32;6.40;;;18.40;99.90;;;;;;4932942;29;20040;-93
2021/06/04 05:45:26;;;;;;;8.68;6.65;;;18.80;99.90;;;;;;4964708;28;20103;-93
2021/06/04 05:48:27;;;;;;;8.80;5.55;;;19.10;99.90;;;;;;4954518;28;20054;-91
2021/06/04 06:02:45;;;;;;;6.80;3.83;;;20.50;99.90;;;;;;4905591;29;20095;-91
2021/06/04 06:05:18;;;;;;;8.13;4.10;;;20.70;99.90;;;;;;4883019;29;20048;-93
2021/06/04 06:07:54;;;;;;;5.03;3.50;;;20.60;99.90;;;;;;4993350;28;20343;-92
2021/06/04 06:10:22;;;;;;;5.45;2.67;;;20.70;99.90;;;;;;5004337;28;20054;-94
2021/06/04 06:12:53;;;;;;;7.40;3.15;;;20.80;99.90;;;;;;5004533;28;20388;-93
2021/06/04 06:15:39;;;;;;;6.03;3.50;;;21.10;99.90;;;;;;5000005;28;20106;-90
2021/06/04 06:18:54;;;;;;;;;;;;;;;;;;;;;
2021/06/04 06:21:28;;;;;;;3.63;3.10;;;21.30;99.90;;;;;;4999519;28;20444;-92
2021/06/04 06:24:04;;;;;;;5.07;3.20;;;21.70;99.90;;;;;;4989708;28;20396;-92
2021/06/04 06:26:31;;;;;;;4.88;2.83;;;22.10;99.90;;;;;;4994290;28;20062;-91
2021/06/04 06:29:16;;;;;;;4.90;3.03;;;22.30;99.90;;;;;;4984436;28;20154;-93
2021/06/04 06:31:49;;;;;;;8.98;3.13;;;22.40;99.90;;;;;;4998478;28;20054;-92
2021/06/04 06:34:27;;;;;;;;;;;;;;;;;;;;;
2021/06/04 06:40:06;;;;;;;3.30;2.40;;;23.00;99.90;;;;;;4997224;28;20057;-92
2021/06/04 06:43:14;;;;;;;4.22;2.30;;;23.10;99.90;;;;;;5004897;28;20134;-95
2021/06/04 06:46:00;;;;;;;4.07;2.35;;;23.30;99.90;;;;;;4998833;28;20068;-91
2021/06/04 06:48:51;;;;;;;5.70;2.45;;;23.40;99.90;;;;;;4993516;28;20133;-91
2021/06/04 06:51:28;;;;;;;3.42;1.90;;;23.20;99.90;;;;;;4986101;28;20081;-93
2021/06/04 06:53:57;;;;;;;5.20;2.03;;;23.10;99.90;;;;;;4985182;28;20058;-94
2021/06/04 06:56:30;;;;;;;2.33;2.00;;;23.00;99.90;;;;;;5008527;28;20113;-92
2021/06/04 06:59:00;;;;;;;3.40;1.85;;;22.70;99.90;;;;;;4981658;28;20051;-90
2021/06/04 07:01:32;;;;;;;3.60;1.88;;;22.40;99.90;;;;;;4986531;28;20050;-91
2021/06/04 07:04:04;;;;;;;3.45;1.70;;;22.30;99.90;;;;;;5000471;28;20050;-91
2021/06/04 07:06:46;;;;;;;2.67;1.45;;;22.30;99.90;;;;;;5000876;28;20054;-93
2021/06/04 07:09:24;;;;;;;2.25;2.03;;;22.80;99.90;;;;;;5002670;28;20058;-94
2021/06/04 07:12:15;;;;;;;5.75;2.08;;;23.50;99.90;;;;;;4988752;28;20756;-92
2021/06/04 07:15:10;;;;;;;3.88;2.63;;;24.30;99.90;;;;;;4996298;28;20439;-92
2021/06/04 07:18:05;;;;;;;2.25;1.50;;;24.70;97.80;;;;;;5003432;28;20081;-92
2021/06/04 07:23:45;;;;;;;2.78;1.60;;;25.10;90.90;;;;;;4982093;28;19976;-91
2021/06/04 07:26:18;;;;;;;2.83;1.50;;;25.80;88.70;;;;;;4995940;28;20054;-92
2021/06/04 07:29:26;;;;;;;;;;;;;;;;;;;;;
2021/06/04 07:32:03;;;;;;;3.65;1.70;;;26.30;85.00;;;;;;4935181;29;20044;-92
2021/06/04 07:34:56;;;;;;;4.43;1.80;;;26.30;81.00;;;;;;4946501;28;20083;-91
2021/06/04 07:37:56;;;;;;;4.72;1.60;;;26.20;78.30;;;;;;4944077;28;20485;-91
2021/06/04 07:44:16;;;;;;;2.78;1.23;;;27.20;72.30;;;;;;4910227;29;20119;-94
2021/06/04 07:46:51;;;;;;;;;;;27.40;67.20;;;;;;4900463;29;20423;-94
2021/06/04 07:49:59;;;;;;;4.72;1.63;;;27.50;66.40;;;;;;4871298;29;20441;-93
2021/06/04 07:52:39;;;;;;;3.95;1.48;;;27.90;62.40;;;;;;4906572;29;20043;-90
2021/06/04 07:55:29;;;;;;;2.15;1.10;;;28.30;66.10;;;;;;4942538;29;20070;-93
2021/06/04 07:57:57;;;;;;;4.72;1.67;;;28.90;59.40;;;;;;4962122;29;20047;-91
2021/06/04 08:00:28;;;;;;;3.75;1.40;;;28.70;57.50;;;;;;4954118;29;20048;-91
2021/06/04 08:03:08;;;;;;;7.57;2.00;;;28.40;58.30;;;;;;4951819;29;20097;-92
2021/06/04 08:05:38;;;;;;;3.78;1.90;;;27.80;61.20;;;;;;4945009;28;20059;-91
2021/06/04 08:08:14;;;;;;;4.50;1.75;;;27.50;63.70;;;;;;4953471;29;20058;-92
2021/06/04 08:10:56;;;;;;;7.38;1.85;;;27.50;65.20;;;;;;4955483;28;20078;-93
2021/06/04 08:14:00;;;;;;;;;;;;;;;;;;;;;
2021/06/04 08:17:02;;;;;;;2.72;1.48;;;27.40;64.10;;;;;;4993201;28;20102;-92
2021/06/04 08:20:08;;;;;;;;;;;;;;;;;;;;;
2021/06/04 08:23:16;;;;;;;2.38;1.50;;;28.60;61.80;;;;;;4933797;29;20044;-91
2021/06/04 08:30:11;;;;;;;;;;;;;;;;;;;;;
2021/06/04 08:32:55;;;;;;;6.00;1.63;;;30.10;57.60;;;;;;4928039;29;20150;-91
2021/06/04 08:38:32;;;;;;;5.22;1.90;;;30.00;57.00;;;;;;4984604;28;20089;-93
2021/06/04 08:41:11;;;;;;;6.63;1.95;;;29.80;58.20;;;;;;4998779;28;20073;-91
2021/06/04 08:44:05;;;;;;;4.90;2.05;;;29.80;58.90;;;;;;4996691;28;20050;-92
2021/06/04 08:46:40;;;;;;;5.47;1.88;;;29.80;58.30;;;;;;4997104;28;20070;-92
2021/06/04 08:49:21;;;;;;;2.20;1.65;;;29.70;59.40;;;;;;5012717;28;20062;-92
2021/06/04 08:52:33;;;;;;;6.38;2.40;;;29.50;59.10;;;;;;4980264;28;20102;-93
2021/06/04 08:55:37;;;;;;;;;;;;;;;;;;;;;
2021/06/04 08:59:23;;;;;;;9.90;2.33;;;30.70;56.70;;;;;;4986014;28;20112;-92
2021/06/04 09:02:33;;;;;;;5.75;1.85;;;31.00;55.90;;;;;;4993444;28;20086;-92
2021/06/04 09:05:26;;;;;;;4.78;1.92;;;31.30;55.90;;;;;;4982060;28;20065;-92
2021/06/04 09:08:08;;;;;;;4.65;2.00;;;31.30;54.80;;;;;;4990082;28;20130;-92
2021/06/04 09:11:09;;;;;;;5.82;2.20;;;30.00;57.60;;;;;;4991899;28;20101;-93
2021/06/04 09:14:04;;;;;;;8.27;2.40;;;30.10;58.20;;;;;;4990699;28;20098;-93
2021/06/04 09:17:09;;;;;;;6.07;2.20;;;29.60;57.40;;;;;;4987818;28;20042;-92
2021/06/04 09:20:12;;;;;;;4.38;2.30;;;29.20;59.00;;;;;;4969861;28;20062;-92
2021/06/04 09:25:58;;;;;;;5.00;1.73;;;30.00;59.90;;;;;;4977396;28;20046;-91
2021/06/04 09:29:04;;;;;;;3.72;2.20;;;30.60;57.30;;;;;;4986191;28;20054;-90
2021/06/04 09:31:51;;;;;;;5.47;2.28;;;30.90;56.30;;;;;;4945574;28;20074;-92
2021/06/04 09:34:37;;;;;;;5.40;2.17;;;30.20;58.30;;;;;;4990111;28;20058;-91
2021/06/04 09:37:23;;;;;;;7.70;2.10;;;29.70;58.90;;;;;;4994681;28;20055;-91
2021/06/04 09:40:26;;;;;;;4.80;2.28;;;29.60;59.40;;;;;;4989804;28;20084;-91
2021/06/04 09:43:23;;;;;;;4.82;2.17;;;30.00;59.20;;;;;;4999874;28;20046;-92
2021/06/04 09:46:08;;;;;;;3.80;1.90;;;30.10;57.30;;;;;;4999108;28;20035;-92
2021/06/04 09:48:47;;;;;;;5.60;2.05;;;30.10;60.70;;;;;;4981347;28;20047;-92
2021/06/04 09:51:37;;;;;;;4.47;2.13;;;30.50;56.70;;;;;;4986463;28;20479;-94
2021/06/04 09:54:57;;;;;;;;;;;;;;;;;;;;;
2021/06/04 10:01:29;;;;;;;6.43;1.90;;;31.50;56.40;;;;;;4934282;28;20051;-91
2021/06/04 10:04:27;;;;;;;5.53;2.20;;;31.90;53.80;;;;;;4922273;29;20466;-93
2021/06/04 10:07:25;;;;;;;4.75;2.20;;;31.90;53.20;;;;;;4987637;28;20086;-92
2021/06/04 10:10:53;;;;;;;5.28;1.92;;;32.10;53.10;;;;;;4992944;28;20133;-93
2021/06/04 10:13:59;;;;;;;4.85;1.95;;;32.50;52.10;;;;;;4941038;28;20067;-92
2021/06/04 10:19:40;;;;;;;5.03;2.17;;;31.40;54.90;;;;;;4992442;28;20034;-89
2021/06/04 10:22:22;;;;;;;8.18;2.72;;;30.10;55.30;;;;;;4992851;28;20057;-93
2021/06/04 10:25:10;;;;;;;5.95;2.40;;;28.60;58.50;;;;;;4999040;28;20058;-92
2021/06/04 10:27:46;;;;;;;3.63;2.30;;;28.20;59.10;;;;;;4996199;28;20050;-91
2021/06/04 10:30:15;;;;;;;4.40;2.10;;;27.90;58.90;;;;;;4997204;28;20050;-91
2021/06/04 10:33:24;;;;;;;3.45;1.73;;;27.60;59.40;;;;;;4997602;28;20087;-93
2021/06/04 10:36:22;;;;;;;6.57;1.70;;;28.70;57.20;;;;;;4989516;28;20120;-93
2021/06/04 10:39:13;;;;;;;2.60;1.67;;;29.70;52.80;;;;;;4948891;29;20139;-93
2021/06/04 10:42:07;;;;;;;4.13;1.77;;;30.30;50.50;;;;;;4945781;28;20109;-92
2021/06/04 10:44:47;;;;;;;2.55;1.58;;;30.60;49.50;;;;;;4938142;28;20094;-94
2021/06/04 10:47:57;;;;;;;5.78;1.75;;;30.80;51.90;;;;;;4957363;29;20043;-92
2021/06/04 10:51:24;;;;;;;;;;;;;;;;;;;;;
2021/06/04 10:53:58;;;;;;;4.18;1.77;;;32.50;48.00;;;;;;4957009;29;20059;-94
2021/06/04 10:57:02;;;;;;;3.80;2.05;;;32.10;48.60;;;;;;4947594;29;20054;-93
2021/06/04 11:00:53;;;;;;;5.80;1.75;;;32.00;48.30;;;;;;4899889;29;20052;-92
2021/06/04 11:03:34;;;;;;;4.45;1.83;;;31.20;48.20;;;;;;4937460;29;20039;-92
2021/06/04 11:06:51;;;;;;;5.38;2.03;;;30.40;48.90;;;;;;4944222;29;20050;-91
2021/06/04 11:09:30;;;;;;;5.65;1.70;;;29.90;50.30;;;;;;4965452;28;20053;-90
2021/06/04 11:12:20;;;;;;;5.60;1.85;;;29.10;50.00;;;;;;4997059;28;20050;-90
2021/06/04 11:15:03;;;;;;;6.65;2.13;;;29.10;52.10;;;;;;4999233;28;20053;-90
2021/06/04 11:18:31;;;;;;;4.10;1.98;;;29.00;52.70;;;;;;4995240;28;20101;-93
2021/06/04 11:21:34;;;;;;;4.35;1.92;;;29.30;52.10;;;;;;4989154;28;20057;-93
2021/06/04 11:24:13;;;;;;;4.28;1.90;;;28.50;55.60;;;;;;4995933;28;20050;-93
2021/06/04 11:26:56;;;;;;;6.15;2.30;;;28.10;56.00;;;;;;4986497;28;20050;-93
2021/06/04 11:29:36;;;;;;;6.75;2.47;;;27.30;58.10;;;;;;4995962;28;20042;-94
2021/06/04 11:32:14;;;;;;;5.85;2.13;;;27.10;59.30;;;;;;4981974;28;20046;-93
2021/06/04 11:35:19;;;;;;;6.82;2.22;;;27.30;59.70;;;;;;4980042;28;20109;-90
2021/06/04 11:38:30;;;;;;;6.68;2.40;;;27.50;58.70;;;;;;4976395;28;20082;-91
2021/06/04 11:41:34;;;;;;;5.25;2.10;;;27.20;59.20;;;;;;4987929;28;20113;-92
2021/06/04 11:44:24;;;;;;;4.55;1.95;;;27.10;60.50;;;;;;4995912;28;20391;-92
2021/06/04 11:47:45;;;;;;;3.88;1.90;;;27.50;59.70;;;;;;4993158;28;20483;-94
2021/06/04 11:50:53;;;;;;;5.75;2.03;;;27.20;59.30;;;;;;4988369;28;20643;-94
2021/06/04 11:55:01;;;;;;;4.78;2.45;;;27.20;57.60;;;;;;4996344;28;20076;-89
2021/06/04 11:58:01;;;;;;;4.35;2.03;;;27.00;59.90;;;;;;4991619;28;20058;-93
2021/06/04 12:00:44;;;;;;;4.95;2.00;;;27.00;59.40;;;;;;4998813;28;20116;-93
2021/06/04 12:03:13;;;;;;;6.22;2.60;;;27.20;60.60;;;;;;5010666;28;20050;-92
2021/06/04 12:05:57;;;;;;;7.00;3.20;;;27.40;59.80;;;;;;5001405;28;20054;-91
2021/06/04 12:08:27;;;;;;;4.20;2.35;;;27.30;59.40;;;;;;4990162;28;20046;-94
2021/06/04 12:11:00;;;;;;;6.75;2.33;;;27.30;58.80;;;;;;4998385;28;20054;-93
2021/06/04 12:13:44;;;;;;;5.13;2.22;;;27.40;58.30;;;;;;4990172;28;20058;-92
2021/06/04 12:16:30;;;;;;;5.60;2.47;;;28.00;58.90;;;;;;4995749;28;20118;-92
2021/06/04 12:19:22;;;;;;;4.43;2.30;;;28.30;58.00;;;;;;4992684;28;20074;-93
2021/06/04 12:22:24;;;;;;;5.07;2.10;;;28.50;58.30;;;;;;4991199;28;20054;-94
2021/06/04 12:25:35;;;;;;;4.45;2.03;;;28.20;58.30;;;;;;4985136;28;20042;-93
2021/06/04 12:28:29;;;;;;;;;;;;;;;;;;;;;
2021/06/04 12:31:32;;;;;;;5.50;2.35;;;28.50;56.00;;;;;;5004712;28;20474;-93
2021/06/04 12:35:15;;;;;;;4.78;2.03;;;28.50;55.90;;;;;;5002715;28;20054;-94
2021/06/04 12:37:50;;;;;;;5.53;2.50;;;28.50;55.30;;;;;;5000112;28;20061;-93
2021/06/04 12:41:16;;;;;;;6.18;2.38;;;28.40;56.80;;;;;;4996413;28;20047;-96
2021/06/04 12:43:55;;;;;;;4.22;2.25;;;28.20;57.20;;;;;;4955666;29;20047;-95
2021/06/04 12:46:25;;;;;;;5.25;2.40;;;28.70;56.10;;;;;;4950379;29;20135;-94
2021/06/04 12:49:41;;;;;;;5.65;2.35;;;29.00;55.30;;;;;;4933570;29;20056;-94
2021/06/04 12:53:25;;;;;;;;;;;;;;;;;;;;;
2021/06/04 12:56:29;;;;;;;6.60;2.60;;;29.40;55.40;;;;;;4957387;28;20046;-91
2021/06/04 13:00:20;;;;;;;;;;;;;;;;;;;;;
2021/06/04 13:03:57;;;;;;;5.15;2.60;;;27.90;61.80;;;;;;4951282;29;20042;-94
2021/06/04 13:10:31;;;;;;;5.72;2.63;;;25.90;70.60;;;;;;4848475;29;20555;-92
2021/06/04 13:14:10;;;;;;;;;;;;;;;;;;;;;
2021/06/04 13:16:43;;;;;;;6.20;2.55;;;25.60;74.70;;;;;;4944820;29;20136;-91
2021/06/04 13:23:20;;;;;;;5.72;3.40;;;25.40;95.00;;;;;;4985524;28;20050;-94
2021/06/04 13:26:04;;;;;;;9.40;3.80;;;24.50;99.90;;;;;;4988677;28;20416;-91
2021/06/04 13:29:26;;;;;;;8.93;3.90;;;24.00;99.90;;;;;;4998606;28;20054;-90
2021/06/04 13:35:49;;;;;;;7.85;2.80;;;23.50;99.90;;;;;;4965479;28;20043;-90
2021/06/04 13:43:17;;;;;;;;;;;;;;;;;;;;;
2021/06/04 14:05:50;;;;;;;;;;;;;;;;;;;;;
2021/06/04 14:09:36;;;;;;;3.55;1.48;;;23.30;99.90;;;;;;4776529;29;20060;-92
2021/06/04 16:03:31;;;;;;;8.65;3.50;;;25.70;96.40;;;;;;4817581;29;20058;-93
2021/06/04 21:58:26;;;;;;;;;;;;;;;;;;;;;
2021/06/04 22:08:34;;;;;;;7.88;5.28;;;18.00;99.90;;;;;;4796031;29;20061;-93
2021/06/04 22:11:21;;;;;;;8.55;5.88;;;18.00;99.90;;;;;;4771902;30;20052;-93
2021/06/04 22:14:18;;;;;;;9.80;6.28;;;18.00;99.90;;;;;;4727220;30;20096;-95
2021/06/04 22:16:55;;;;;;;9.32;6.13;;;17.90;99.90;;;;;;4730491;30;20069;-92
2021/06/04 22:20:26;;;;;;;9.95;6.03;;;17.90;99.90;;;;;;4801011;29;20054;-93
2021/06/04 22:22:58;;;;;;;7.88;5.63;;;17.70;99.90;;;;;;4855231;29;20109;-94
2021/06/04 22:26:21;;;;;;;;;;;;;;;;;;;;;
2021/06/04 22:37:07;;;;;;;;;;;;;;;;;;;;;
2021/06/04 22:40:23;;;;;;;;;;;;;;;;;;;;;
2021/06/04 22:43:15;;;;;;;13.65;6.80;;;18.00;99.90;;;;;;4914035;29;20276;-93
2021/06/04 22:45:43;;;;;;;11.27;6.78;;;18.10;99.90;;;;;;4931436;29;20448;-93
2021/06/04 22:48:17;;;;;;;7.55;5.22;;;18.00;99.90;;;;;;4918414;29;20040;-93
2021/06/04 22:50:47;;;;;;;7.75;3.92;;;18.20;99.90;;;;;;4919165;29;20059;-93
2021/06/04 22:53:34;;;;;;;5.45;2.50;;;18.50;99.90;;;;;;4920991;29;20084;-93
2021/06/04 22:56:39;;;;;;;4.55;1.85;;;18.70;99.90;;;;;;4854008;29;20103;-92
2021/06/04 22:59:12;;;;;;;4.93;1.58;;;18.60;99.90;;;;;;4859357;29;20054;-92
2021/06/04 23:01:52;;;;;;;3.95;1.70;;;18.30;99.90;;;;;;4843456;29;20061;-94
2021/06/04 23:04:34;;;;;;;3.38;1.70;;;17.90;99.90;;;;;;4886280;29;20079;-93
2021/06/04 23:07:06;;;;;;;3.65;2.15;;;17.20;99.90;;;;;;4912735;29;20343;-92
2021/06/04 23:09:38;;;;;;;4.60;1.85;;;16.60;99.90;;;;;;4918000;29;20728;-90
2021/06/04 23:12:07;;;;;;;4.22;1.83;;;16.10;99.90;;;;;;4921779;29;20056;-93
2021/06/04 23:14:37;;;;;;;7.65;2.60;;;15.90;99.90;;;;;;4994615;28;20064;-91
2021/06/04 23:17:04;;;;;;;9.88;3.20;;;15.70;99.90;;;;;;4985190;28;20113;-91
2021/06/04 23:19:36;;;;;;;5.40;2.45;;;15.60;99.90;;;;;;4982262;28;20252;-91
2021/06/04 23:22:03;;;;;;;4.65;2.38;;;15.50;99.90;;;;;;4987716;28;20057;-93
2021/06/04 23:24:31;;;;;;;4.38;1.80;;;15.40;99.90;;;;;;5016713;28;20050;-90
2021/06/04 23:27:13;;;;;;;4.72;2.00;;;15.30;99.90;;;;;;4982987;28;20065;-93
2021/06/04 23:29:43;;;;;;;2.72;1.98;;;15.20;99.90;;;;;;4984129;28;20428;-92
2021/06/04 23:32:10;;;;;;;5.75;2.13;;;15.20;99.90;;;;;;5019074;28;20045;-92
2021/06/04 23:35:05;;;;;;;2.22;2.00;;;15.10;99.90;;;;;;5001027;28;20147;-94
2021/06/04 23:37:35;;;;;;;5.55;2.92;;;15.00;99.90;;;;;;4987643;28;20050;-93
2021/06/04 23:40:47;;;;;;;5.90;2.55;;;14.90;99.90;;;;;;4999948;28;20042;-94
2021/06/04 23:43:18;;;;;;;5.00;2.22;;;14.90;99.90;;;;;;4945256;29;20120;-93
2021/06/04 23:45:45;;;;;;;4.38;2.50;;;14.90;99.90;;;;;;4947559;28;20114;-90
2021/06/04 23:48:13;;;;;;;7.97;2.72;;;14.90;99.90;;;;;;5001312;28;20043;-91
2021/06/04 23:50:47;;;;;;;3.50;2.47;;;14.80;99.90;;;;;;4983045;28;20122;-92
2021/06/04 23:53:17;;;;;;;4.68;2.95;;;14.90;99.90;;;;;;4998152;28;20047;-92
2021/06/04 23:55:44;;;;;;;7.57;2.65;;;14.90;99.90;;;;;;4996575;28;20132;-92
2021/06/04 23:58:16;;;;;;;7.05;2.80;;;15.00;99.90;;;;;;4999583;28;20081;-93
